Terminal Aerodrome Forecast
Issued by NWS Louisville, KY

Home | Current Version | Previous Version | Text Only | Print | Product List | Glossary On
Versions: 1 2 3 4 5 6 7 8 9 10 11 12 13 14 15 16 17 18 19
594
FTUS43 KLMK 090918 AAA
TAFLEX
TAF AMD
KLEX 090918Z 0909/1006 29010KT 6SM -SHSN FEW014 BKN035
      TEMPO 0909/0912 3SM -SHSN BKN025
     FM091200 27007KT P6SM VCSH OVC018
     FM092100 27009KT 3SM -SHSN OVC018=

USA.gov is the U.S. government's official web portal to all federal, state and local government web resources and services.